createdAt,value
2018-09-26T00:00:25.109Z,99.90
2018-09-26T00:02:57.945Z,99.90
2018-09-26T00:05:27.857Z,99.90
2018-09-26T00:07:58.411Z,99.90
2018-09-26T00:10:28.555Z,99.90
2018-09-26T00:13:03.078Z,99.90
2018-09-26T00:15:33.340Z,99.90
2018-09-26T00:18:07.362Z,99.90
2018-09-26T00:20:38.366Z,99.90
2018-09-26T00:23:09.046Z,99.90
2018-09-26T00:25:40.085Z,99.90
2018-09-26T00:28:10.046Z,99.90
2018-09-26T00:30:40.015Z,99.90
2018-09-26T00:33:10.728Z,99.90
2018-09-26T00:35:41.829Z,99.90
2018-09-26T00:38:12.901Z,99.90
2018-09-26T00:40:43.206Z,99.90
2018-09-26T00:43:13.534Z,99.90
2018-09-26T00:45:43.504Z,99.90
2018-09-26T00:48:13.500Z,99.90
2018-09-26T00:50:43.508Z,99.90
2018-09-26T00:53:13.820Z,99.90
2018-09-26T00:55:44.290Z,99.90
2018-09-26T00:58:14.706Z,99.90
2018-09-26T01:00:44.848Z,99.90
2018-09-26T01:03:15.014Z,99.90
2018-09-26T01:05:56.326Z,99.90
2018-09-26T01:08:26.628Z,99.90
2018-09-26T01:10:57.162Z,99.90
2018-09-26T01:13:27.357Z,99.90
2018-09-26T01:15:57.488Z,99.90
2018-09-26T01:18:27.462Z,99.90
2018-09-26T01:20:57.384Z,99.90
2018-09-26T01:23:27.692Z,99.90
2018-09-26T01:25:57.878Z,99.90
2018-09-26T01:28:33.994Z,99.90
2018-09-26T01:31:04.573Z,99.90
2018-09-26T01:33:35.365Z,99.90
2018-09-26T01:36:05.843Z,99.90
2018-09-26T01:38:36.953Z,99.90
2018-09-26T01:41:07.316Z,99.90
2018-09-26T01:43:37.686Z,99.90
2018-09-26T01:46:08.093Z,99.90
2018-09-26T01:48:38.412Z,99.90
2018-09-26T01:51:08.737Z,99.90
2018-09-26T01:53:39.132Z,99.90
2018-09-26T01:56:09.640Z,99.90
2018-09-26T01:58:39.674Z,99.90
2018-09-26T02:01:09.914Z,99.90
2018-09-26T02:03:40.125Z,99.90
2018-09-26T02:06:10.435Z,99.90
2018-09-26T02:08:40.430Z,99.90
2018-09-26T02:11:10.602Z,99.90
2018-09-26T02:13:40.644Z,99.90
2018-09-26T02:16:11.088Z,99.90
2018-09-26T02:18:41.092Z,99.90
2018-09-26T02:21:11.544Z,99.90
2018-09-26T02:23:41.625Z,99.90
2018-09-26T02:26:11.604Z,99.90
2018-09-26T02:28:42.286Z,99.90
2018-09-26T02:31:12.418Z,99.90
2018-09-26T02:33:42.400Z,99.90
2018-09-26T02:36:12.668Z,99.90
2018-09-26T02:38:43.174Z,99.90
2018-09-26T02:41:13.488Z,99.90
2018-09-26T02:43:43.836Z,99.90
2018-09-26T02:46:13.965Z,99.90
2018-09-26T02:48:49.015Z,99.90
2018-09-26T02:51:18.729Z,99.90
2018-09-26T02:53:48.627Z,99.90
2018-09-26T02:56:18.861Z,99.90
2018-09-26T02:58:48.749Z,99.90
2018-09-26T03:01:19.256Z,99.90
2018-09-26T03:03:52.716Z,99.90
2018-09-26T03:06:22.944Z,99.90
2018-09-26T03:08:53.232Z,99.90
2018-09-26T03:11:23.575Z,99.90
2018-09-26T03:13:53.619Z,99.90
2018-09-26T03:16:23.926Z,99.90
2018-09-26T03:18:54.582Z,99.90
2018-09-26T03:21:24.772Z,99.90
2018-09-26T03:23:54.720Z,99.90
2018-09-26T03:26:24.820Z,99.90
2018-09-26T03:28:54.808Z,99.90
2018-09-26T03:31:24.902Z,99.90
2018-09-26T03:33:54.938Z,99.90
2018-09-26T03:36:24.810Z,99.90
2018-09-26T03:38:55.110Z,99.90
2018-09-26T03:41:25.509Z,99.90
2018-09-26T03:43:55.812Z,99.90
2018-09-26T03:46:25.922Z,99.90
2018-09-26T03:48:56.576Z,99.90
2018-09-26T03:51:26.513Z,99.90
2018-09-26T03:53:56.832Z,99.90
2018-09-26T03:56:27.299Z,99.90
2018-09-26T03:58:57.633Z,99.90
2018-09-26T04:01:27.548Z,99.90
2018-09-26T04:03:57.604Z,99.90
2018-09-26T04:06:28.800Z,99.90
2018-09-26T04:08:58.795Z,99.90
2018-09-26T04:11:29.364Z,99.90
2018-09-26T04:13:59.100Z,99.90
2018-09-26T04:16:28.927Z,99.90
2018-09-26T04:18:59.211Z,99.90
2018-09-26T04:21:28.886Z,99.90
2018-09-26T04:23:59.028Z,99.90
2018-09-26T04:26:29.270Z,99.90
2018-09-26T04:28:59.424Z,99.90
2018-09-26T04:31:29.880Z,99.90
2018-09-26T04:34:00.234Z,99.90
2018-09-26T04:36:31.513Z,99.90
2018-09-26T04:39:02.698Z,99.90
2018-09-26T04:41:33.879Z,99.90
2018-09-26T04:44:03.683Z,99.90
2018-09-26T04:46:34.187Z,99.90
2018-09-26T04:49:05.055Z,99.90
2018-09-26T04:51:35.858Z,99.90
2018-09-26T04:54:06.610Z,99.90
2018-09-26T04:56:36.800Z,99.90
2018-09-26T04:59:06.683Z,99.90
2018-09-26T05:01:37.348Z,99.90
2018-09-26T05:04:07.278Z,99.90
2018-09-26T05:06:37.408Z,99.90
2018-09-26T05:09:10.574Z,99.90
2018-09-26T05:11:41.104Z,99.90
2018-09-26T05:14:11.018Z,99.90
2018-09-26T05:16:41.791Z,99.90
2018-09-26T05:19:12.559Z,99.90
2018-09-26T05:21:43.790Z,99.90
2018-09-26T05:24:13.711Z,99.90
2018-09-26T05:26:44.139Z,99.90
2018-09-26T05:29:14.249Z,99.90
2018-09-26T05:31:46.207Z,99.90
2018-09-26T05:34:16.201Z,99.90
2018-09-26T05:36:46.399Z,99.90
2018-09-26T05:39:16.279Z,99.90
2018-09-26T05:41:46.405Z,99.90
2018-09-26T05:44:16.148Z,99.90
2018-09-26T05:46:47.168Z,99.90
2018-09-26T05:49:18.446Z,99.90
2018-09-26T05:51:49.597Z,99.90
2018-09-26T05:54:19.368Z,99.10
2018-09-26T05:56:49.926Z,98.20
2018-09-26T05:59:19.809Z,97.50
2018-09-26T06:01:49.890Z,97.00
2018-09-26T06:04:19.978Z,96.10
2018-09-26T06:06:53.180Z,95.80
2018-09-26T06:09:23.731Z,94.60
2018-09-26T06:11:54.029Z,93.50
2018-09-26T06:14:23.752Z,93.20
2018-09-26T06:16:54.683Z,92.60
2018-09-26T06:19:24.776Z,92.20
2018-09-26T06:21:55.572Z,91.70
2018-09-26T06:24:25.569Z,91.10
2018-09-26T06:26:55.793Z,90.70
2018-09-26T06:29:25.594Z,90.10
2018-09-26T06:31:55.460Z,89.80
2018-09-26T06:34:25.521Z,89.50
2018-09-26T06:36:55.852Z,89.10
2018-09-26T06:39:25.554Z,88.50
2018-09-26T06:41:55.445Z,88.60
2018-09-26T06:44:28.879Z,87.90
2018-09-26T06:46:58.787Z,87.70
2018-09-26T06:49:33.383Z,87.50
2018-09-26T06:52:03.096Z,87.20
2018-09-26T06:54:33.114Z,86.80
2018-09-26T06:57:02.920Z,86.60
2018-09-26T06:59:32.902Z,86.40
2018-09-26T07:02:12.385Z,86.10
2018-09-26T07:04:42.222Z,85.60
2018-09-26T07:07:15.233Z,84.90
2018-09-26T07:09:44.909Z,84.90
2018-09-26T07:12:14.280Z,84.30
2018-09-26T07:14:44.219Z,83.90
2018-09-26T07:17:14.687Z,83.80
2018-09-26T07:19:44.059Z,82.90
2018-09-26T07:22:13.808Z,82.70
2018-09-26T07:24:43.108Z,82.70
2018-09-26T07:27:16.072Z,81.90
2018-09-26T07:29:45.798Z,82.20
2018-09-26T07:32:18.965Z,81.00
2018-09-26T07:34:48.913Z,80.50
2018-09-26T07:37:18.780Z,80.40
2018-09-26T07:39:48.793Z,80.40
2018-09-26T07:42:18.676Z,80.00
2018-09-26T07:44:48.465Z,79.60
2018-09-26T07:47:18.100Z,79.60
2018-09-26T07:49:48.255Z,79.00
2018-09-26T07:52:18.042Z,79.30
2018-09-26T07:54:47.300Z,79.80
2018-09-26T07:57:16.677Z,79.20
2018-09-26T07:59:46.251Z,79.40
2018-09-26T08:02:15.874Z,79.20
2018-09-26T08:04:45.678Z,79.00
2018-09-26T08:07:25.102Z,79.00
2018-09-26T08:09:54.856Z,78.90
2018-09-26T08:12:24.748Z,78.90
2018-09-26T08:14:54.180Z,79.00
2018-09-26T08:17:24.400Z,78.70
2018-09-26T08:19:53.691Z,78.40
2018-09-26T08:22:22.963Z,78.30
2018-09-26T08:24:52.487Z,78.80
2018-09-26T08:27:28.447Z,79.00
2018-09-26T08:29:57.922Z,78.70
2018-09-26T08:32:41.180Z,78.70
2018-09-26T08:35:11.296Z,78.50
2018-09-26T08:37:41.206Z,78.60
2018-09-26T08:40:10.829Z,77.50
2018-09-26T08:42:41.519Z,77.30
2018-09-26T08:45:10.836Z,77.70
2018-09-26T08:47:40.654Z,77.30
2018-09-26T08:50:10.813Z,77.10
2018-09-26T08:52:44.648Z,75.50
2018-09-26T08:55:14.911Z,75.10
2018-09-26T08:57:44.558Z,75.10
2018-09-26T09:00:14.438Z,74.90
2018-09-26T09:02:43.905Z,74.90
2018-09-26T09:05:13.961Z,73.40
2018-09-26T09:07:44.320Z,74.10
2018-09-26T09:10:13.934Z,73.70
2018-09-26T09:12:43.696Z,73.70
2018-09-26T09:15:13.986Z,73.30
2018-09-26T09:17:43.758Z,73.30
2018-09-26T09:20:13.996Z,72.90
2018-09-26T09:22:44.410Z,72.20
2018-09-26T09:25:14.704Z,72.60
2018-09-26T09:27:44.712Z,72.40
2018-09-26T09:30:14.652Z,71.10
2018-09-26T09:32:44.156Z,72.00
2018-09-26T09:35:14.065Z,71.60
2018-09-26T09:37:43.798Z,72.00
2018-09-26T09:40:13.588Z,72.20
2018-09-26T09:42:43.748Z,71.00
2018-09-26T09:45:13.865Z,71.70
2018-09-26T09:47:43.634Z,70.80
2018-09-26T09:50:14.102Z,70.90
2018-09-26T09:52:44.162Z,71.10
2018-09-26T09:55:14.597Z,70.00
2018-09-26T09:57:44.523Z,70.70
2018-09-26T10:00:14.759Z,70.10
2018-09-26T10:02:44.730Z,68.90
2018-09-26T10:05:15.459Z,66.20
2018-09-26T10:07:45.261Z,64.90
2018-09-26T10:10:15.739Z,63.00
2018-09-26T10:12:45.541Z,62.40
2018-09-26T10:15:15.781Z,61.90
2018-09-26T10:17:45.507Z,61.90
2018-09-26T10:20:15.653Z,61.00
2018-09-26T10:22:45.468Z,61.10
2018-09-26T10:25:16.498Z,60.70
2018-09-26T10:27:46.097Z,60.00
2018-09-26T10:30:17.018Z,59.40
2018-09-26T10:32:46.893Z,59.30
2018-09-26T10:35:17.489Z,59.30
2018-09-26T10:37:46.899Z,59.20
2018-09-26T10:40:18.057Z,57.50
2018-09-26T10:42:48.141Z,57.80
2018-09-26T10:45:21.402Z,57.90
2018-09-26T10:47:50.973Z,57.70
2018-09-26T10:50:21.118Z,56.60
2018-09-26T10:52:51.115Z,55.70
2018-09-26T10:55:24.834Z,55.80
2018-09-26T10:57:54.598Z,56.80
2018-09-26T11:00:24.544Z,57.00
2018-09-26T11:02:54.162Z,57.00
2018-09-26T11:05:24.064Z,57.10
2018-09-26T11:07:53.662Z,57.10
2018-09-26T11:10:23.633Z,56.10
2018-09-26T11:12:53.290Z,55.20
2018-09-26T11:15:22.800Z,55.10
2018-09-26T11:17:52.259Z,55.20
2018-09-26T11:20:21.724Z,55.20
2018-09-26T11:22:51.439Z,56.10
2018-09-26T11:25:21.137Z,56.30
2018-09-26T11:27:51.041Z,56.20
2018-09-26T11:30:20.554Z,57.00
2018-09-26T11:32:50.504Z,56.20
2018-09-26T11:35:20.050Z,56.60
2018-09-26T11:37:50.727Z,55.90
2018-09-26T11:40:20.264Z,55.40
2018-09-26T11:42:49.515Z,55.20
2018-09-26T11:45:21.365Z,55.80
2018-09-26T11:47:50.748Z,55.30
2018-09-26T11:50:22.998Z,55.30
2018-09-26T11:52:52.588Z,55.20
2018-09-26T11:55:21.869Z,56.00
2018-09-26T11:57:52.054Z,54.90
2018-09-26T12:00:22.238Z,54.70
2018-09-26T12:02:52.096Z,55.30
2018-09-26T12:05:21.926Z,56.10
2018-09-26T12:07:51.805Z,56.30
2018-09-26T12:10:21.793Z,56.20
2018-09-26T12:12:51.558Z,55.30
2018-09-26T12:15:21.826Z,55.00
2018-09-26T12:17:52.003Z,54.20
2018-09-26T12:20:21.766Z,53.80
2018-09-26T12:22:51.296Z,53.80
2018-09-26T12:25:21.706Z,53.20
2018-09-26T12:27:54.573Z,53.30
2018-09-26T12:30:24.168Z,52.80
2018-09-26T12:32:54.021Z,53.20
2018-09-26T12:35:23.823Z,52.20
2018-09-26T12:37:53.536Z,52.50
2018-09-26T12:40:26.025Z,52.90
2018-09-26T12:42:55.649Z,52.10
2018-09-26T12:45:26.336Z,52.20
2018-09-26T12:47:55.883Z,52.10
2018-09-26T12:50:25.665Z,52.00
2018-09-26T12:52:55.561Z,52.00
2018-09-26T12:55:25.357Z,52.60
2018-09-26T12:57:54.702Z,51.80
2018-09-26T13:00:25.868Z,51.90
2018-09-26T13:02:55.103Z,52.20
2018-09-26T13:05:25.156Z,52.60
2018-09-26T13:07:55.299Z,52.20
2018-09-26T13:10:24.875Z,52.10
2018-09-26T13:12:54.692Z,52.50
2018-09-26T13:15:27.917Z,51.80
2018-09-26T13:17:57.650Z,51.30
2018-09-26T13:20:28.850Z,51.30
2018-09-26T13:22:58.286Z,51.70
2018-09-26T13:25:28.181Z,51.60
2018-09-26T13:27:58.733Z,50.80
2018-09-26T13:30:28.423Z,50.80
2018-09-26T13:32:58.300Z,50.40
2018-09-26T13:35:27.823Z,50.90
2018-09-26T13:37:57.519Z,50.40
2018-09-26T13:40:31.002Z,50.10
2018-09-26T13:43:00.721Z,50.40
2018-09-26T13:45:31.184Z,50.40
2018-09-26T13:48:01.092Z,50.00
2018-09-26T13:50:31.088Z,49.50
2018-09-26T13:53:00.733Z,49.40
2018-09-26T13:55:31.122Z,49.60
2018-09-26T13:58:07.135Z,49.60
2018-09-26T14:00:37.287Z,49.90
2018-09-26T14:03:07.121Z,49.60
2018-09-26T14:05:36.814Z,50.00
2018-09-26T14:08:06.910Z,49.90
2018-09-26T14:10:36.568Z,49.60
2018-09-26T14:13:06.336Z,50.40
2018-09-26T14:15:36.248Z,49.90
2018-09-26T14:18:06.222Z,49.70
2018-09-26T14:20:36.489Z,49.30
2018-09-26T14:23:05.914Z,49.90
2018-09-26T14:25:35.441Z,50.20
2018-09-26T14:28:05.576Z,50.40
2018-09-26T14:30:35.853Z,50.50
2018-09-26T14:33:05.228Z,50.90
2018-09-26T14:35:35.095Z,49.90
2018-09-26T14:38:05.212Z,49.90
2018-09-26T14:40:34.506Z,49.70
2018-09-26T14:43:04.105Z,50.30
2018-09-26T14:45:33.574Z,50.20
2018-09-26T14:48:02.817Z,50.30
2018-09-26T14:50:32.287Z,50.10
2018-09-26T14:53:01.810Z,49.60
2018-09-26T14:55:31.718Z,49.70
2018-09-26T14:58:01.553Z,49.60
2018-09-26T15:00:32.238Z,49.10
2018-09-26T15:03:01.969Z,49.10
2018-09-26T15:05:31.607Z,49.10
2018-09-26T15:08:01.359Z,48.80
2018-09-26T15:10:37.552Z,48.80
2018-09-26T15:13:07.103Z,49.60
2018-09-26T15:15:37.370Z,50.00
2018-09-26T15:18:07.463Z,49.50
2018-09-26T15:20:36.773Z,49.70
2018-09-26T15:23:05.887Z,49.90
2018-09-26T15:25:35.096Z,50.00
2018-09-26T15:28:04.611Z,50.30
2018-09-26T15:30:33.881Z,49.70
2018-09-26T15:33:03.071Z,49.90
2018-09-26T15:35:32.651Z,48.80
2018-09-26T15:38:03.381Z,48.90
2018-09-26T15:40:33.401Z,49.10
2018-09-26T15:43:02.839Z,48.90
2018-09-26T15:45:33.260Z,49.20
2018-09-26T15:48:02.790Z,48.80
2018-09-26T15:50:32.961Z,48.70
2018-09-26T15:53:02.691Z,48.90
2018-09-26T15:55:33.385Z,49.20
2018-09-26T15:58:03.019Z,49.20
2018-09-26T16:00:41.981Z,49.10
2018-09-26T16:03:34.344Z,49.30
2018-09-26T16:06:30.984Z,50.10
2018-09-26T16:09:00.660Z,50.10
2018-09-26T16:11:30.260Z,49.70
2018-09-26T16:14:00.380Z,50.10
2018-09-26T16:16:29.967Z,50.10
2018-09-26T16:18:59.688Z,49.90
2018-09-26T16:21:33.875Z,49.70
2018-09-26T16:24:03.871Z,50.20
2018-09-26T16:26:34.459Z,50.20
2018-09-26T16:29:04.743Z,50.30
2018-09-26T16:31:35.705Z,50.40
2018-09-26T16:34:05.084Z,50.30
2018-09-26T16:36:36.387Z,50.70
2018-09-26T16:39:08.597Z,51.00
2018-09-26T16:41:38.563Z,51.00
2018-09-26T16:44:07.994Z,51.40
2018-09-26T16:46:41.349Z,52.20
2018-09-26T16:49:11.076Z,53.30
2018-09-26T16:51:50.428Z,54.30
2018-09-26T16:54:20.225Z,55.20
2018-09-26T16:56:53.785Z,56.00
2018-09-26T16:59:23.228Z,57.40
2018-09-26T17:01:53.288Z,58.40
2018-09-26T17:04:23.222Z,58.90
2018-09-26T17:06:57.959Z,60.00
2018-09-26T17:09:27.933Z,61.00
2018-09-26T17:12:00.781Z,61.10
2018-09-26T17:14:31.019Z,61.90
2018-09-26T17:17:01.261Z,62.60
2018-09-26T17:19:32.795Z,63.70
2018-09-26T17:22:02.411Z,64.00
2018-09-26T17:24:32.303Z,64.90
2018-09-26T17:27:01.905Z,65.20
2018-09-26T17:29:32.211Z,66.10
2018-09-26T17:32:02.139Z,66.10
2018-09-26T17:34:32.380Z,67.10
2018-09-26T17:37:02.152Z,68.20
2018-09-26T17:39:31.993Z,68.80
2018-09-26T17:42:01.926Z,70.00
2018-09-26T17:44:31.761Z,71.10
2018-09-26T17:47:01.735Z,72.10
2018-09-26T17:49:31.052Z,73.20
2018-09-26T17:52:01.553Z,73.80
2018-09-26T17:54:31.946Z,74.30
2018-09-26T17:57:02.297Z,75.00
2018-09-26T17:59:33.475Z,75.90
2018-09-26T18:02:06.112Z,76.50
2018-09-26T18:04:38.252Z,76.70
2018-09-26T18:07:10.110Z,76.60
2018-09-26T18:09:42.570Z,76.70
2018-09-26T18:12:13.372Z,77.30
2018-09-26T18:14:45.167Z,77.70
2018-09-26T18:17:16.457Z,78.40
2018-09-26T18:19:47.309Z,78.90
2018-09-26T18:22:17.934Z,79.70
2018-09-26T18:24:49.715Z,80.30
2018-09-26T18:27:21.247Z,81.00
2018-09-26T18:29:51.984Z,81.30
2018-09-26T18:32:23.744Z,81.80
2018-09-26T18:34:55.390Z,82.00
2018-09-26T18:37:26.154Z,82.60
2018-09-26T18:39:57.169Z,83.00
2018-09-26T18:42:29.050Z,83.90
2018-09-26T18:45:00.225Z,84.40
2018-09-26T18:47:31.008Z,84.80
2018-09-26T18:50:02.272Z,84.60
2018-09-26T18:52:32.025Z,85.30
2018-09-26T18:55:02.226Z,85.70
2018-09-26T18:57:43.836Z,85.70
2018-09-26T19:04:01.400Z,86.50
2018-09-26T19:06:31.275Z,87.10
2018-09-26T19:09:01.465Z,87.50
2018-09-26T19:11:31.123Z,87.40
2018-09-26T19:14:01.971Z,87.60
2018-09-26T19:16:31.932Z,88.20
2018-09-26T19:19:01.711Z,89.10
2018-09-26T19:21:31.428Z,89.40
2018-09-26T19:24:01.399Z,89.20
2018-09-26T19:26:31.536Z,89.30
2018-09-26T19:29:01.217Z,89.40
2018-09-26T19:31:31.237Z,89.60
2018-09-26T19:34:01.616Z,90.30
2018-09-26T19:36:31.907Z,90.50
2018-09-26T19:39:09.569Z,90.80
2018-09-26T19:41:39.613Z,91.10
2018-09-26T19:44:09.301Z,91.10
2018-09-26T19:46:41.022Z,91.50
2018-09-26T19:49:10.928Z,92.10
2018-09-26T19:51:41.309Z,92.50
2018-09-26T19:54:11.907Z,92.10
2018-09-26T19:56:43.999Z,91.80
2018-09-26T20:01:51.236Z,91.90
2018-09-26T20:04:20.786Z,92.20
2018-09-26T20:06:50.440Z,92.40
2018-09-26T20:09:20.126Z,93.10
2018-09-26T20:11:49.971Z,92.60
2018-09-26T20:14:19.696Z,92.60
2018-09-26T20:16:49.500Z,92.90
2018-09-26T20:19:18.890Z,92.40
2018-09-26T20:21:48.451Z,92.50
2018-09-26T20:24:18.054Z,92.60
2018-09-26T20:26:53.931Z,93.30
2018-09-26T20:29:23.610Z,94.10
2018-09-26T20:31:54.131Z,94.30
2018-09-26T20:34:23.712Z,94.50
2018-09-26T20:36:53.934Z,94.50
2018-09-26T20:39:23.778Z,94.40
2018-09-26T20:41:53.481Z,94.30
2018-09-26T20:44:22.908Z,94.60
2018-09-26T20:46:52.750Z,94.10
2018-09-26T20:49:22.561Z,94.00
2018-09-26T20:51:54.366Z,94.20
2018-09-26T20:54:25.165Z,94.60
2018-09-26T20:56:56.153Z,95.10
2018-09-26T20:59:27.786Z,96.10
2018-09-26T21:01:58.563Z,95.60
2018-09-26T21:04:30.261Z,95.90
2018-09-26T21:07:01.133Z,95.70
2018-09-26T21:09:32.325Z,95.90
2018-09-26T21:12:03.120Z,96.30
2018-09-26T21:14:34.011Z,96.50
2018-09-26T21:17:05.154Z,96.60
2018-09-26T21:19:45.288Z,96.70
2018-09-26T21:22:15.552Z,96.90
2018-09-26T21:24:49.827Z,96.90
2018-09-26T21:27:20.213Z,97.30
2018-09-26T21:29:55.566Z,97.20
2018-09-26T21:32:26.070Z,96.90
2018-09-26T21:34:56.656Z,96.80
2018-09-26T21:37:28.094Z,97.00
2018-09-26T21:39:58.485Z,97.00
2018-09-26T21:42:29.813Z,97.10
2018-09-26T21:45:00.460Z,97.20
2018-09-26T21:47:30.930Z,97.40
2018-09-26T21:50:01.913Z,97.50
2018-09-26T21:52:32.338Z,97.70
2018-09-26T21:55:02.934Z,98.10
2018-09-26T21:57:33.549Z,97.50
2018-09-26T22:00:04.295Z,97.70
2018-09-26T22:02:35.320Z,97.60
2018-09-26T22:05:06.128Z,97.60
2018-09-26T22:07:37.003Z,97.80
2018-09-26T22:10:07.820Z,97.60
2018-09-26T22:12:39.534Z,97.50
2018-09-26T22:15:16.815Z,97.80
2018-09-26T22:17:47.815Z,98.20
2018-09-26T22:20:18.578Z,98.30
2018-09-26T22:22:50.082Z,97.80
2018-09-26T22:25:20.422Z,97.80
2018-09-26T22:27:50.560Z,98.20
2018-09-26T22:30:24.657Z,97.10
2018-09-26T22:32:56.288Z,97.40
2018-09-26T22:35:27.950Z,97.70
2018-09-26T22:37:59.010Z,97.20
2018-09-26T22:40:29.951Z,96.50
2018-09-26T22:43:00.589Z,96.10
2018-09-26T22:45:31.342Z,96.10
2018-09-26T22:48:01.955Z,96.10
2018-09-26T22:50:33.142Z,96.20
2018-09-26T22:53:03.636Z,96.60
2018-09-26T22:55:36.111Z,96.80
2018-09-26T22:58:06.669Z,96.70
2018-09-26T23:00:37.571Z,95.90
2018-09-26T23:03:08.594Z,96.00
2018-09-26T23:05:38.784Z,96.30
2018-09-26T23:08:09.370Z,96.70
2018-09-26T23:10:40.483Z,96.90
2018-09-26T23:13:10.756Z,96.80
2018-09-26T23:15:41.205Z,96.90
2018-09-26T23:18:17.082Z,97.80
2018-09-26T23:20:47.826Z,97.80
2018-09-26T23:23:18.028Z,97.60
2018-09-26T23:25:48.930Z,97.20
2018-09-26T23:28:19.920Z,97.00
2018-09-26T23:30:50.517Z,96.50
2018-09-26T23:33:20.678Z,95.70
2018-09-26T23:35:51.322Z,95.40
2018-09-26T23:38:26.438Z,95.30
2018-09-26T23:40:57.782Z,95.30
2018-09-26T23:43:28.014Z,95.50
2018-09-26T23:46:00.874Z,95.60
2018-09-26T23:48:31.965Z,95.60
2018-09-26T23:51:02.476Z,96.10
2018-09-26T23:53:33.910Z,96.50
2018-09-26T23:56:04.806Z,96.60
2018-09-26T23:58:35.063Z,96.80
